createdAt,value
2017-06-21T00:00:01.613Z,76.40
2017-06-21T00:02:29.857Z,76.80
2017-06-21T00:04:57.337Z,77.00
2017-06-21T00:07:24.837Z,77.70
2017-06-21T00:09:52.369Z,78.20
2017-06-21T00:12:20.893Z,78.50
2017-06-21T00:14:49.366Z,78.50
2017-06-21T00:17:17.781Z,78.20
2017-06-21T00:19:45.261Z,78.20
2017-06-21T00:22:13.534Z,77.80
2017-06-21T00:24:41.790Z,78.60
2017-06-21T00:27:09.270Z,77.80
2017-06-21T00:29:37.537Z,78.60
2017-06-21T00:32:05.013Z,77.90
2017-06-21T00:34:33.258Z,77.80
2017-06-21T00:37:00.757Z,77.70
2017-06-21T00:39:28.237Z,77.80
2017-06-21T00:41:55.716Z,77.90
2017-06-21T00:44:23.245Z,78.70
2017-06-21T00:46:50.725Z,78.80
2017-06-21T00:49:18.201Z,78.40
2017-06-21T00:51:45.701Z,78.10
2017-06-21T00:54:13.181Z,78.10
2017-06-21T00:56:40.923Z,77.90
2017-06-21T00:59:08.427Z,77.80
2017-06-21T01:01:35.913Z,78.40
2017-06-21T01:04:04.157Z,78.30
2017-06-21T01:06:31.658Z,78.20
2017-06-21T01:08:59.908Z,78.60
2017-06-21T01:11:27.393Z,78.70
2017-06-21T01:13:54.896Z,78.50
2017-06-21T01:16:22.378Z,79.10
2017-06-21T01:18:49.857Z,79.10
2017-06-21T01:21:18.120Z,79.50
2017-06-21T01:23:46.377Z,80.40
2017-06-21T01:26:13.853Z,79.70
2017-06-21T01:28:42.121Z,79.70
2017-06-21T01:31:09.600Z,79.70
2017-06-21T01:33:37.844Z,80.00
2017-06-21T01:36:05.346Z,80.00
2017-06-21T01:38:32.825Z,80.30
2017-06-21T01:41:00.305Z,80.50
2017-06-21T01:43:27.813Z,80.60
2017-06-21T01:45:55.294Z,81.70
2017-06-21T01:48:22.789Z,82.00
2017-06-21T01:50:50.518Z,82.30
2017-06-21T01:53:18.005Z,82.40
2017-06-21T01:55:45.486Z,82.80
2017-06-21T01:58:13.755Z,83.00
2017-06-21T02:00:42.002Z,83.00
2017-06-21T02:03:09.480Z,83.00
2017-06-21T02:05:36.993Z,82.70
2017-06-21T02:08:04.553Z,82.50
2017-06-21T02:10:32.034Z,82.40
2017-06-21T02:12:59.533Z,82.10
2017-06-21T02:15:27.780Z,81.40
2017-06-21T02:17:56.039Z,80.70
2017-06-21T02:20:23.537Z,80.80
2017-06-21T02:22:51.782Z,81.10
2017-06-21T02:25:19.265Z,81.10
2017-06-21T02:27:47.530Z,80.90
2017-06-21T02:30:16.029Z,80.70
2017-06-21T02:32:44.278Z,80.50
2017-06-21T02:35:11.782Z,80.50
2017-06-21T02:37:39.261Z,80.70
2017-06-21T02:40:06.742Z,81.60
2017-06-21T02:42:34.241Z,81.40
2017-06-21T02:45:01.819Z,81.10
2017-06-21T02:47:29.297Z,80.20
2017-06-21T02:49:56.797Z,80.60
2017-06-21T02:52:25.041Z,81.90
2017-06-21T02:54:52.525Z,81.90
2017-06-21T02:57:20.830Z,82.30
2017-06-21T02:59:48.346Z,82.30
2017-06-21T03:02:15.862Z,82.80
2017-06-21T03:04:43.365Z,82.90
2017-06-21T03:07:10.845Z,82.30
2017-06-21T03:09:39.090Z,82.40
2017-06-21T03:12:06.589Z,82.40
2017-06-21T03:14:34.069Z,82.50
2017-06-21T03:17:01.549Z,82.90
2017-06-21T03:19:29.045Z,82.90
2017-06-21T03:21:57.565Z,82.80
2017-06-21T03:24:25.045Z,82.80
2017-06-21T03:26:52.553Z,82.60
2017-06-21T03:29:20.037Z,82.70
2017-06-21T03:31:47.516Z,82.60
2017-06-21T03:34:15.013Z,82.40
2017-06-21T03:36:43.257Z,82.40
2017-06-21T03:39:10.733Z,82.30
2017-06-21T03:41:39.105Z,82.80
2017-06-21T03:44:06.590Z,82.60
2017-06-21T03:46:34.073Z,82.40
2017-06-21T03:49:01.576Z,82.90
2017-06-21T03:51:29.085Z,82.40
2017-06-21T03:53:56.566Z,82.40
2017-06-21T03:56:24.066Z,82.20
2017-06-21T03:58:52.313Z,81.80
2017-06-21T04:01:19.792Z,81.70
2017-06-21T04:03:48.057Z,82.00
2017-06-21T04:06:15.537Z,82.00
2017-06-21T04:08:43.086Z,81.90
2017-06-21T04:11:11.466Z,81.00
2017-06-21T04:13:39.713Z,80.70
2017-06-21T04:16:07.194Z,80.70
2017-06-21T04:18:35.461Z,80.20
2017-06-21T04:21:03.705Z,80.10
2017-06-21T04:23:31.210Z,80.50
2017-06-21T04:25:59.511Z,81.30
2017-06-21T04:28:27.026Z,81.20
2017-06-21T04:30:55.278Z,80.20
2017-06-21T04:33:22.778Z,80.10
2017-06-21T04:35:51.025Z,79.60
2017-06-21T04:38:18.504Z,79.50
2017-06-21T04:40:46.785Z,79.70
2017-06-21T04:43:15.030Z,79.30
2017-06-21T04:45:42.610Z,79.30
2017-06-21T04:48:10.877Z,77.10
2017-06-21T04:50:39.129Z,76.60
2017-06-21T04:53:06.610Z,77.00
2017-06-21T04:55:34.881Z,78.00
2017-06-21T04:58:02.391Z,77.60
2017-06-21T05:00:29.903Z,77.70
2017-06-21T05:02:58.177Z,78.30
2017-06-21T05:05:26.424Z,79.00
2017-06-21T05:07:53.901Z,79.00
2017-06-21T05:10:21.782Z,76.50
2017-06-21T05:12:50.029Z,70.40
2017-06-21T05:15:17.509Z,70.30
2017-06-21T05:17:45.814Z,65.60
2017-06-21T05:20:13.335Z,65.50
2017-06-21T05:22:40.820Z,65.50
2017-06-21T05:25:11.215Z,61.10
2017-06-21T05:27:38.730Z,59.30
2017-06-21T05:30:06.247Z,58.40
2017-06-21T05:32:34.559Z,56.10
2017-06-21T05:35:02.082Z,56.70
2017-06-21T05:37:30.362Z,54.90
2017-06-21T05:39:58.700Z,53.20
2017-06-21T05:42:26.214Z,53.10
2017-06-21T05:44:54.007Z,53.40
2017-06-21T05:47:21.579Z,52.90
2017-06-21T05:49:49.095Z,51.70
2017-06-21T05:52:16.614Z,51.50
2017-06-21T05:54:44.155Z,50.90
2017-06-21T05:57:11.671Z,51.00
2017-06-21T05:59:39.187Z,50.00
2017-06-21T06:02:06.726Z,48.70
2017-06-21T06:04:34.208Z,46.30
2017-06-21T06:07:01.722Z,47.60
2017-06-21T06:09:29.263Z,48.30
2017-06-21T06:11:56.778Z,48.30
2017-06-21T06:14:24.294Z,48.40
2017-06-21T06:16:52.146Z,48.30
2017-06-21T06:19:19.662Z,47.60
2017-06-21T06:21:47.176Z,47.70
2017-06-21T06:24:14.718Z,48.10
2017-06-21T06:26:42.206Z,48.10
2017-06-21T06:29:09.685Z,47.00
2017-06-21T06:31:37.201Z,45.70
2017-06-21T06:34:04.681Z,44.30
2017-06-21T06:36:32.162Z,45.20
2017-06-21T06:38:59.662Z,45.90
2017-06-21T06:41:27.141Z,44.70
2017-06-21T06:43:54.620Z,45.10
2017-06-21T06:46:22.522Z,44.30
2017-06-21T06:48:50.770Z,44.40
2017-06-21T06:51:18.254Z,44.30
2017-06-21T06:53:46.521Z,44.20
2017-06-21T06:56:14.765Z,43.80
2017-06-21T06:58:42.245Z,43.70
2017-06-21T07:01:09.745Z,44.20
2017-06-21T07:03:37.265Z,44.80
2017-06-21T07:06:05.513Z,46.40
2017-06-21T07:08:33.012Z,45.70
2017-06-21T07:11:01.261Z,43.60
2017-06-21T07:13:28.742Z,43.60
2017-06-21T07:15:57.021Z,43.70
2017-06-21T07:18:25.273Z,43.40
2017-06-21T07:20:52.760Z,43.30
2017-06-21T07:23:20.266Z,44.30
2017-06-21T07:25:47.752Z,43.60
2017-06-21T07:28:16.002Z,44.40
2017-06-21T07:30:43.509Z,44.40
2017-06-21T07:33:11.058Z,44.20
2017-06-21T07:35:39.337Z,46.60
2017-06-21T07:38:07.602Z,45.70
2017-06-21T07:40:35.849Z,44.20
2017-06-21T07:43:03.330Z,44.10
2017-06-21T07:45:31.596Z,44.50
2017-06-21T07:47:59.074Z,44.30
2017-06-21T07:50:27.317Z,42.40
2017-06-21T07:52:54.906Z,42.40
2017-06-21T07:55:23.153Z,42.60
2017-06-21T07:57:50.633Z,42.60
2017-06-21T08:00:18.968Z,41.00
2017-06-21T08:02:46.448Z,39.80
2017-06-21T08:05:13.929Z,40.70
2017-06-21T08:07:42.194Z,40.90
2017-06-21T08:10:10.443Z,39.80
2017-06-21T08:12:37.925Z,39.70
2017-06-21T08:15:06.260Z,39.60
2017-06-21T08:17:33.741Z,38.90
2017-06-21T08:20:01.223Z,40.10
2017-06-21T08:22:29.493Z,40.80
2017-06-21T08:24:57.773Z,40.70
2017-06-21T08:27:26.021Z,39.10
2017-06-21T08:29:53.525Z,39.10
2017-06-21T08:32:21.005Z,37.10
2017-06-21T08:34:48.493Z,38.00
2017-06-21T08:37:15.994Z,36.90
2017-06-21T08:39:43.473Z,34.90
2017-06-21T08:42:10.957Z,35.90
2017-06-21T08:44:38.457Z,37.50
2017-06-21T08:47:05.942Z,36.60
2017-06-21T08:49:33.425Z,36.30
2017-06-21T08:52:00.950Z,35.30
2017-06-21T08:54:28.429Z,34.00
2017-06-21T08:56:55.927Z,35.70
2017-06-21T08:59:23.453Z,37.50
2017-06-21T09:01:50.938Z,35.60
2017-06-21T09:04:18.421Z,34.20
2017-06-21T09:06:46.934Z,33.50
2017-06-21T09:09:14.412Z,33.50
2017-06-21T09:11:41.888Z,33.90
2017-06-21T09:14:09.618Z,34.00
2017-06-21T09:16:37.097Z,36.70
2017-06-21T09:19:04.581Z,35.10
2017-06-21T09:21:32.082Z,34.10
2017-06-21T09:23:59.597Z,33.20
2017-06-21T09:26:27.842Z,33.00
2017-06-21T09:28:55.578Z,32.90
2017-06-21T09:31:23.057Z,33.00
2017-06-21T09:33:50.529Z,31.70
2017-06-21T09:36:18.023Z,31.10
2017-06-21T09:38:45.505Z,31.20
2017-06-21T09:41:12.981Z,30.20
2017-06-21T09:43:40.482Z,31.50
2017-06-21T09:46:08.730Z,32.80
2017-06-21T09:48:36.220Z,32.70
2017-06-21T09:51:04.485Z,33.60
2017-06-21T09:53:31.989Z,33.60
2017-06-21T09:55:59.469Z,34.00
2017-06-21T09:58:38.856Z,31.50
2017-06-21T10:01:06.369Z,33.20
2017-06-21T10:03:33.849Z,33.30
2017-06-21T10:06:02.130Z,32.20
2017-06-21T10:08:30.373Z,31.90
2017-06-21T10:10:57.962Z,31.90
2017-06-21T10:13:26.313Z,31.20
2017-06-21T10:15:53.798Z,31.20
2017-06-21T10:18:22.048Z,31.10
2017-06-21T10:20:49.550Z,31.10
2017-06-21T10:23:17.033Z,32.10
2017-06-21T10:25:44.509Z,31.00
2017-06-21T10:28:12.249Z,29.80
2017-06-21T10:30:39.725Z,28.90
2017-06-21T10:33:07.208Z,29.30
2017-06-21T10:35:34.711Z,32.70
2017-06-21T10:38:02.189Z,30.20
2017-06-21T10:40:29.669Z,32.70
2017-06-21T10:42:57.173Z,31.20
2017-06-21T10:45:24.705Z,32.10
2017-06-21T10:47:52.950Z,32.60
2017-06-21T10:50:20.846Z,32.50
2017-06-21T10:52:49.090Z,32.00
2017-06-21T10:55:16.569Z,32.60
2017-06-21T10:57:44.065Z,30.10
2017-06-21T11:00:11.541Z,28.00
2017-06-21T11:02:39.021Z,30.20
2017-06-21T11:05:06.513Z,31.00
2017-06-21T11:07:34.981Z,29.90
2017-06-21T11:10:03.217Z,30.40
2017-06-21T11:12:30.708Z,30.00
2017-06-21T11:14:58.189Z,28.60
2017-06-21T11:17:25.735Z,28.10
2017-06-21T11:19:53.253Z,28.40
2017-06-21T11:22:20.734Z,30.40
2017-06-21T11:24:48.222Z,31.00
2017-06-21T11:27:15.729Z,31.00
2017-06-21T11:29:43.209Z,31.00
2017-06-21T11:32:10.689Z,30.00
2017-06-21T11:34:38.189Z,28.60
2017-06-21T11:37:05.672Z,29.00
2017-06-21T11:39:33.925Z,28.00
2017-06-21T11:42:01.421Z,27.70
2017-06-21T11:44:29.948Z,29.30
2017-06-21T11:46:57.425Z,28.90
2017-06-21T11:49:24.927Z,26.90
2017-06-21T11:51:53.171Z,27.50
2017-06-21T11:54:20.914Z,27.50
2017-06-21T11:56:48.429Z,29.30
2017-06-21T11:59:15.937Z,29.00
2017-06-21T12:01:43.439Z,28.10
2017-06-21T12:04:10.989Z,27.30
2017-06-21T12:06:39.324Z,28.50
2017-06-21T12:09:06.869Z,28.50
2017-06-21T12:11:34.401Z,28.20
2017-06-21T12:14:01.921Z,28.60
2017-06-21T12:16:29.393Z,29.30
2017-06-21T12:18:57.739Z,26.90
2017-06-21T12:21:25.225Z,26.80
2017-06-21T12:23:52.936Z,26.20
2017-06-21T12:26:20.432Z,25.60
2017-06-21T12:28:48.721Z,25.80
2017-06-21T12:31:16.965Z,26.70
2017-06-21T12:33:44.464Z,26.10
2017-06-21T12:36:12.716Z,26.20
2017-06-21T12:38:40.973Z,26.90
2017-06-21T12:41:08.509Z,26.50
2017-06-21T12:43:36.014Z,27.70
2017-06-21T12:46:03.589Z,27.20
2017-06-21T12:48:32.109Z,24.20
2017-06-21T12:50:59.593Z,24.60
2017-06-21T12:53:27.187Z,25.90
2017-06-21T12:55:54.693Z,27.40
2017-06-21T12:58:22.161Z,26.90
2017-06-21T13:00:49.633Z,26.30
2017-06-21T13:03:17.126Z,26.50
2017-06-21T13:05:44.597Z,26.00
2017-06-21T13:08:12.073Z,25.20
2017-06-21T13:10:39.569Z,26.50
2017-06-21T13:13:07.037Z,26.70
2017-06-21T13:15:35.273Z,27.40
2017-06-21T13:18:02.760Z,26.90
2017-06-21T13:20:30.238Z,26.80
2017-06-21T13:22:58.478Z,28.10
2017-06-21T13:25:25.970Z,28.00
2017-06-21T13:27:53.448Z,29.80
2017-06-21T13:30:20.921Z,29.60
2017-06-21T13:32:48.417Z,29.80
2017-06-21T13:35:15.888Z,29.90
2017-06-21T13:37:44.133Z,30.10
2017-06-21T13:40:11.625Z,30.10
2017-06-21T13:42:39.101Z,30.50
2017-06-21T13:45:06.570Z,30.20
2017-06-21T13:47:34.075Z,29.80
2017-06-21T13:50:01.545Z,29.60
2017-06-21T13:52:29.781Z,28.70
2017-06-21T13:54:57.272Z,28.70
2017-06-21T13:57:24.745Z,30.50
2017-06-21T13:59:52.218Z,31.20
2017-06-21T14:02:19.713Z,30.60
2017-06-21T14:04:47.185Z,30.90
2017-06-21T14:07:14.703Z,30.00
2017-06-21T14:09:42.194Z,30.10
2017-06-21T14:12:09.930Z,30.90
2017-06-21T14:14:37.401Z,31.20
2017-06-21T14:17:04.893Z,31.40
2017-06-21T14:19:33.129Z,31.30
2017-06-21T14:22:00.605Z,31.00
2017-06-21T14:24:28.097Z,30.80
2017-06-21T14:26:55.569Z,30.90
2017-06-21T14:29:23.053Z,30.20
2017-06-21T14:31:50.545Z,31.00
2017-06-21T14:34:18.017Z,31.60
2017-06-21T14:36:46.253Z,32.50
2017-06-21T14:39:13.759Z,32.40
2017-06-21T14:41:41.232Z,31.80
2017-06-21T14:44:08.704Z,31.90
2017-06-21T14:46:36.193Z,33.20
2017-06-21T14:49:03.665Z,31.50
2017-06-21T14:51:31.136Z,33.70
2017-06-21T14:53:59.393Z,32.00
2017-06-21T14:56:26.866Z,31.90
2017-06-21T14:58:55.117Z,31.40
2017-06-21T15:01:22.613Z,31.40
2017-06-21T15:03:50.085Z,31.00
2017-06-21T15:06:17.561Z,30.70
2017-06-21T15:08:45.061Z,30.10
2017-06-21T15:11:13.426Z,31.80
2017-06-21T15:13:41.693Z,32.80
2017-06-21T15:16:09.190Z,32.10
2017-06-21T15:18:36.664Z,32.80
2017-06-21T15:21:04.141Z,32.50
2017-06-21T15:23:31.639Z,32.40
2017-06-21T15:25:59.110Z,33.00
2017-06-21T15:28:27.353Z,34.10
2017-06-21T15:30:54.849Z,34.10
2017-06-21T15:33:23.085Z,34.00
2017-06-21T15:35:50.565Z,34.00
2017-06-21T15:38:18.824Z,34.50
2017-06-21T15:40:46.609Z,34.50
2017-06-21T15:43:14.102Z,34.60
2017-06-21T15:45:41.621Z,34.00
2017-06-21T15:48:09.857Z,35.00
2017-06-21T15:50:37.328Z,35.00
2017-06-21T15:53:04.817Z,35.30
2017-06-21T15:55:33.075Z,35.80
2017-06-21T15:58:00.553Z,36.50
2017-06-21T16:00:28.812Z,35.30
2017-06-21T16:02:57.065Z,35.80
2017-06-21T16:05:24.537Z,35.70
2017-06-21T16:07:52.070Z,35.80
2017-06-21T16:10:19.545Z,35.80
2017-06-21T16:12:47.017Z,35.50
2017-06-21T16:15:15.284Z,36.10
2017-06-21T16:17:42.793Z,36.00
2017-06-21T16:20:10.270Z,35.40
2017-06-21T16:22:37.765Z,36.10
2017-06-21T16:25:06.005Z,35.80
2017-06-21T16:27:33.481Z,35.70
2017-06-21T16:30:00.973Z,34.50
2017-06-21T16:32:28.445Z,34.90
2017-06-21T16:34:55.925Z,35.70
2017-06-21T16:37:23.417Z,35.70
2017-06-21T16:39:50.893Z,35.90
2017-06-21T16:42:19.133Z,36.10
2017-06-21T16:44:46.629Z,35.90
2017-06-21T16:47:14.873Z,36.80
2017-06-21T16:49:42.341Z,36.70
2017-06-21T16:52:10.125Z,36.90
2017-06-21T16:54:37.706Z,36.80
2017-06-21T16:57:05.182Z,36.40
2017-06-21T16:59:32.676Z,35.80
2017-06-21T17:02:00.146Z,36.80
2017-06-21T17:04:28.389Z,37.30
2017-06-21T17:06:55.885Z,37.30
2017-06-21T17:09:24.121Z,37.20
2017-06-21T17:11:51.970Z,37.10
2017-06-21T17:14:19.465Z,37.10
2017-06-21T17:16:46.945Z,37.30
2017-06-21T17:19:14.417Z,37.90
2017-06-21T17:21:41.909Z,37.60
2017-06-21T17:24:09.421Z,37.50
2017-06-21T17:26:37.209Z,37.40
2017-06-21T17:29:04.706Z,38.00
2017-06-21T17:31:32.185Z,38.50
2017-06-21T17:34:00.426Z,38.50
2017-06-21T17:36:27.934Z,38.40
2017-06-21T17:38:55.405Z,38.70
2017-06-21T17:41:23.002Z,38.20
2017-06-21T17:43:50.493Z,39.20
2017-06-21T17:46:18.733Z,40.30
2017-06-21T17:48:46.205Z,40.30
2017-06-21T17:51:13.701Z,40.50
2017-06-21T17:53:41.177Z,40.10
2017-06-21T17:56:08.653Z,40.40
2017-06-21T17:58:36.145Z,40.60
2017-06-21T18:01:04.386Z,40.70
2017-06-21T18:03:31.859Z,40.60
2017-06-21T18:05:59.357Z,40.60
2017-06-21T18:08:26.897Z,41.10
2017-06-21T18:10:55.142Z,41.10
2017-06-21T18:13:29.523Z,41.10
2017-06-21T18:15:57.286Z,41.40
2017-06-21T18:18:25.057Z,41.10
2017-06-21T18:20:52.552Z,41.60
2017-06-21T18:23:20.023Z,41.80
2017-06-21T18:25:48.271Z,42.90
2017-06-21T18:28:16.101Z,42.70
2017-06-21T18:30:43.667Z,42.40
2017-06-21T18:33:11.187Z,42.70
2017-06-21T18:35:39.464Z,43.10
2017-06-21T18:38:07.758Z,43.70
2017-06-21T18:40:35.256Z,43.60
2017-06-21T18:43:02.810Z,43.40
2017-06-21T18:45:30.325Z,44.20
2017-06-21T18:47:57.805Z,44.70
2017-06-21T18:50:25.303Z,45.40
2017-06-21T18:52:52.776Z,46.60
2017-06-21T18:55:21.020Z,49.60
2017-06-21T18:57:48.509Z,48.90
2017-06-21T19:00:16.746Z,50.40
2017-06-21T19:02:44.511Z,49.80
2017-06-21T19:05:12.012Z,49.90
2017-06-21T19:07:40.257Z,50.40
2017-06-21T19:10:07.737Z,50.40
2017-06-21T19:12:36.005Z,51.60
2017-06-21T19:15:04.261Z,51.60
2017-06-21T19:17:31.734Z,51.50
2017-06-21T19:19:59.238Z,51.70
2017-06-21T19:22:26.713Z,52.90
2017-06-21T19:24:54.221Z,54.00
2017-06-21T19:27:22.485Z,54.80
2017-06-21T19:29:49.964Z,54.80
2017-06-21T19:32:17.453Z,54.10
2017-06-21T19:34:44.967Z,54.20
2017-06-21T19:37:13.209Z,54.00
2017-06-21T19:39:40.697Z,53.90
2017-06-21T19:42:08.237Z,54.20
2017-06-21T19:44:35.721Z,54.70
2017-06-21T19:47:11.598Z,55.30
2017-06-21T19:49:45.773Z,55.60
2017-06-21T19:52:13.745Z,56.70
2017-06-21T19:54:41.989Z,57.30
2017-06-21T19:57:09.465Z,57.30
2017-06-21T19:59:37.250Z,57.90
2017-06-21T20:02:05.494Z,58.10
2017-06-21T20:04:32.974Z,58.00
2017-06-21T20:07:01.242Z,58.70
2017-06-21T20:09:28.725Z,58.70
2017-06-21T20:11:56.209Z,59.70
2017-06-21T20:14:23.717Z,59.70
2017-06-21T20:16:51.969Z,60.70
2017-06-21T20:19:19.458Z,60.70
2017-06-21T20:21:47.726Z,61.20
2017-06-21T20:24:15.982Z,61.50
2017-06-21T20:26:43.465Z,61.50
2017-06-21T20:29:11.729Z,62.00
2017-06-21T20:31:39.210Z,62.00
2017-06-21T20:34:06.689Z,63.10
2017-06-21T20:36:34.194Z,63.50
2017-06-21T20:39:01.674Z,63.90
2017-06-21T20:41:29.921Z,64.20
2017-06-21T20:43:57.478Z,64.30
2017-06-21T20:46:24.958Z,64.60
2017-06-21T20:48:53.205Z,64.50
2017-06-21T20:51:20.709Z,64.50
2017-06-21T20:53:48.185Z,64.90
2017-06-21T20:56:15.661Z,65.20
2017-06-21T20:58:43.165Z,65.50
2017-06-21T21:01:11.409Z,66.20
2017-06-21T21:03:38.889Z,66.10
2017-06-21T21:06:07.165Z,68.40
2017-06-21T21:08:35.413Z,67.50
2017-06-21T21:11:02.890Z,67.40
2017-06-21T21:13:30.390Z,68.00
2017-06-21T21:15:57.868Z,67.50
2017-06-21T21:18:25.349Z,67.90
2017-06-21T21:20:52.852Z,67.70
2017-06-21T21:23:20.329Z,68.10
2017-06-21T21:25:47.846Z,68.40
2017-06-21T21:28:16.116Z,68.10
2017-06-21T21:30:44.366Z,69.10
2017-06-21T21:33:12.101Z,69.00
2017-06-21T21:35:39.598Z,69.80
2017-06-21T21:38:07.073Z,69.30
2017-06-21T21:40:35.322Z,70.00
2017-06-21T21:43:02.825Z,70.00
2017-06-21T21:45:30.345Z,70.60
2017-06-21T21:47:57.907Z,70.80
2017-06-21T21:50:25.424Z,71.20
2017-06-21T21:52:52.900Z,70.90
2017-06-21T21:55:20.381Z,70.90
2017-06-21T21:57:48.725Z,70.90
2017-06-21T22:00:16.206Z,70.90
2017-06-21T22:02:43.685Z,71.20
2017-06-21T22:05:11.949Z,71.80
2017-06-21T22:07:39.664Z,71.80
2017-06-21T22:10:07.145Z,71.90
2017-06-21T22:12:34.836Z,72.40
2017-06-21T22:15:03.081Z,72.60
2017-06-21T22:17:30.556Z,73.20
2017-06-21T22:19:58.057Z,73.70
2017-06-21T22:22:25.538Z,74.40
2017-06-21T22:24:53.017Z,74.20
2017-06-21T22:27:20.526Z,73.90
2017-06-21T22:29:48.058Z,73.80
2017-06-21T22:32:16.305Z,73.30
2017-06-21T22:34:43.801Z,74.00
2017-06-21T22:37:12.045Z,73.70
2017-06-21T22:39:39.526Z,73.60
2017-06-21T22:42:07.805Z,73.40
2017-06-21T22:44:36.053Z,74.10
2017-06-21T22:47:03.529Z,74.10
2017-06-21T22:49:31.809Z,74.10
2017-06-21T22:52:00.330Z,74.40
2017-06-21T22:54:27.813Z,74.30
2017-06-21T22:56:55.310Z,74.40
2017-06-21T22:59:23.553Z,75.30
2017-06-21T23:01:51.033Z,75.30
2017-06-21T23:04:19.297Z,75.40
2017-06-21T23:06:46.777Z,75.40
2017-06-21T23:09:14.261Z,75.80
2017-06-21T23:11:41.757Z,76.00
2017-06-21T23:14:09.237Z,76.10
2017-06-21T23:16:37.485Z,76.00
2017-06-21T23:19:04.981Z,76.00
2017-06-21T23:21:32.533Z,76.30
2017-06-21T23:24:00.777Z,77.00
2017-06-21T23:26:28.279Z,77.00
2017-06-21T23:28:55.758Z,77.70
2017-06-21T23:31:23.277Z,77.90
2017-06-21T23:33:51.545Z,78.30
2017-06-21T23:36:19.885Z,78.60
2017-06-21T23:38:47.361Z,78.60
2017-06-21T23:41:14.865Z,77.10
2017-06-21T23:43:42.346Z,77.00
2017-06-21T23:46:09.829Z,77.50
2017-06-21T23:48:37.333Z,77.60
2017-06-21T23:51:04.813Z,77.40
2017-06-21T23:53:32.294Z,78.20
2017-06-21T23:55:59.886Z,78.70
2017-06-21T23:58:28.414Z,80.00
